sensor_id;sensor_type;location;lat;lon;timestamp;P1;durP1;ratioP1;P2;durP2;ratioP2
39020;SDS011;25188;51.958;5.842;2023-04-01T00:02:24;11.30;;;4.47;;
39020;SDS011;25188;51.958;5.842;2023-04-01T00:04:50;8.73;;;3.57;;
39020;SDS011;25188;51.958;5.842;2023-04-01T00:07:15;10.17;;;3.47;;
39020;SDS011;25188;51.958;5.842;2023-04-01T00:09:41;9.67;;;3.47;;
39020;SDS011;25188;51.958;5.842;2023-04-01T00:12:06;13.07;;;4.00;;
39020;SDS011;25188;51.958;5.842;2023-04-01T00:14:32;12.37;;;4.77;;
39020;SDS011;25188;51.958;5.842;2023-04-01T00:16:58;12.43;;;4.67;;
39020;SDS011;25188;51.958;5.842;2023-04-01T00:19:23;13.40;;;4.60;;
39020;SDS011;25188;51.958;5.842;2023-04-01T00:21:49;11.53;;;5.10;;
39020;SDS011;25188;51.958;5.842;2023-04-01T00:24:15;14.37;;;5.60;;
39020;SDS011;25188;51.958;5.842;2023-04-01T00:26:40;13.13;;;5.03;;
39020;SDS011;25188;51.958;5.842;2023-04-01T00:29:07;11.70;;;6.20;;
39020;SDS011;25188;51.958;5.842;2023-04-01T00:31:33;13.63;;;6.13;;
39020;SDS011;25188;51.958;5.842;2023-04-01T00:33:58;14.40;;;6.50;;
39020;SDS011;25188;51.958;5.842;2023-04-01T00:36:24;15.80;;;6.93;;
39020;SDS011;25188;51.958;5.842;2023-04-01T00:38:50;14.33;;;6.90;;
39020;SDS011;25188;51.958;5.842;2023-04-01T00:41:16;19.13;;;7.73;;
39020;SDS011;25188;51.958;5.842;2023-04-01T00:43:45;16.53;;;7.43;;
39020;SDS011;25188;51.958;5.842;2023-04-01T00:46:13;17.30;;;8.50;;
39020;SDS011;25188;51.958;5.842;2023-04-01T00:48:43;17.80;;;8.97;;
39020;SDS011;25188;51.958;5.842;2023-04-01T00:51:45;19.00;;;10.17;;
39020;SDS011;25188;51.958;5.842;2023-04-01T00:54:05;16.48;;;9.23;;
39020;SDS011;25188;51.958;5.842;2023-04-01T00:56:46;19.53;;;10.37;;
39020;SDS011;25188;51.958;5.842;2023-04-01T00:59:21;26.23;;;12.63;;
39020;SDS011;25188;51.958;5.842;2023-04-01T01:01:49;24.70;;;12.93;;
39020;SDS011;25188;51.958;5.842;2023-04-01T01:04:48;24.97;;;13.17;;
39020;SDS011;25188;51.958;5.842;2023-04-01T01:10:15;26.40;;;15.60;;
39020;SDS011;25188;51.958;5.842;2023-04-01T01:12:46;26.20;;;15.63;;
39020;SDS011;25188;51.958;5.842;2023-04-01T01:18:12;33.40;;;17.67;;
39020;SDS011;25188;51.958;5.842;2023-04-01T01:27:11;30.10;;;17.03;;
39020;SDS011;25188;51.958;5.842;2023-04-01T01:32:48;30.85;;;18.48;;
39020;SDS011;25188;51.958;5.842;2023-04-01T01:35:21;31.97;;;18.07;;
39020;SDS011;25188;51.958;5.842;2023-04-01T01:37:52;29.33;;;17.67;;
39020;SDS011;25188;51.958;5.842;2023-04-01T01:40:21;31.30;;;16.73;;
39020;SDS011;25188;51.958;5.842;2023-04-01T01:42:50;32.17;;;17.43;;
39020;SDS011;25188;51.958;5.842;2023-04-01T01:45:20;29.97;;;17.50;;
39020;SDS011;25188;51.958;5.842;2023-04-01T01:47:48;29.90;;;16.43;;
39020;SDS011;25188;51.958;5.842;2023-04-01T01:50:15;30.97;;;16.57;;
39020;SDS011;25188;51.958;5.842;2023-04-01T01:52:42;33.23;;;15.70;;
39020;SDS011;25188;51.958;5.842;2023-04-01T01:57:52;35.80;;;16.48;;
39020;SDS011;25188;51.958;5.842;2023-04-01T02:00:19;37.03;;;14.30;;
39020;SDS011;25188;51.958;5.842;2023-04-01T02:02:46;28.90;;;12.70;;
39020;SDS011;25188;51.958;5.842;2023-04-01T02:05:18;30.43;;;11.90;;
39020;SDS011;25188;51.958;5.842;2023-04-01T02:10:19;25.30;;;9.97;;
39020;SDS011;25188;51.958;5.842;2023-04-01T02:12:47;30.37;;;11.40;;
39020;SDS011;25188;51.958;5.842;2023-04-01T02:15:14;28.43;;;12.00;;
39020;SDS011;25188;51.958;5.842;2023-04-01T02:17:43;26.73;;;10.60;;
39020;SDS011;25188;51.958;5.842;2023-04-01T02:22:41;29.73;;;9.47;;
39020;SDS011;25188;51.958;5.842;2023-04-01T02:25:12;26.60;;;10.20;;
39020;SDS011;25188;51.958;5.842;2023-04-01T02:27:40;27.20;;;8.53;;
39020;SDS011;25188;51.958;5.842;2023-04-01T02:30:09;26.40;;;8.97;;
39020;SDS011;25188;51.958;5.842;2023-04-01T02:32:37;34.10;;;8.90;;
39020;SDS011;25188;51.958;5.842;2023-04-01T02:35:07;24.07;;;8.50;;
39020;SDS011;25188;51.958;5.842;2023-04-01T02:37:35;24.67;;;9.00;;
39020;SDS011;25188;51.958;5.842;2023-04-01T02:40:02;25.30;;;9.47;;
39020;SDS011;25188;51.958;5.842;2023-04-01T02:42:31;31.87;;;10.37;;
39020;SDS011;25188;51.958;5.842;2023-04-01T02:44:57;25.47;;;9.97;;
39020;SDS011;25188;51.958;5.842;2023-04-01T02:47:23;25.27;;;8.20;;
39020;SDS011;25188;51.958;5.842;2023-04-01T02:49:48;21.90;;;9.03;;
39020;SDS011;25188;51.958;5.842;2023-04-01T02:52:14;26.53;;;8.73;;
39020;SDS011;25188;51.958;5.842;2023-04-01T02:54:39;26.00;;;8.87;;
39020;SDS011;25188;51.958;5.842;2023-04-01T02:57:05;22.73;;;9.33;;
39020;SDS011;25188;51.958;5.842;2023-04-01T02:59:31;21.80;;;9.07;;
39020;SDS011;25188;51.958;5.842;2023-04-01T03:01:57;19.67;;;8.10;;
39020;SDS011;25188;51.958;5.842;2023-04-01T03:04:23;15.33;;;7.03;;
39020;SDS011;25188;51.958;5.842;2023-04-01T03:06:48;14.97;;;7.17;;
39020;SDS011;25188;51.958;5.842;2023-04-01T03:09:14;15.37;;;6.57;;
39020;SDS011;25188;51.958;5.842;2023-04-01T03:11:41;17.90;;;8.00;;
39020;SDS011;25188;51.958;5.842;2023-04-01T03:14:06;16.33;;;7.63;;
39020;SDS011;25188;51.958;5.842;2023-04-01T03:16:32;18.13;;;7.70;;
39020;SDS011;25188;51.958;5.842;2023-04-01T03:18:58;16.00;;;7.20;;
39020;SDS011;25188;51.958;5.842;2023-04-01T03:21:25;18.60;;;7.53;;
39020;SDS011;25188;51.958;5.842;2023-04-01T03:23:51;16.33;;;7.27;;
39020;SDS011;25188;51.958;5.842;2023-04-01T03:26:16;17.93;;;7.97;;
39020;SDS011;25188;51.958;5.842;2023-04-01T03:28:43;21.20;;;9.03;;
39020;SDS011;25188;51.958;5.842;2023-04-01T03:31:09;18.87;;;8.17;;
39020;SDS011;25188;51.958;5.842;2023-04-01T03:33:35;17.60;;;8.07;;
39020;SDS011;25188;51.958;5.842;2023-04-01T03:36:01;17.87;;;7.97;;
39020;SDS011;25188;51.958;5.842;2023-04-01T03:38:28;15.03;;;7.03;;
39020;SDS011;25188;51.958;5.842;2023-04-01T03:40:53;16.43;;;8.00;;
39020;SDS011;25188;51.958;5.842;2023-04-01T03:43:19;15.10;;;7.73;;
39020;SDS011;25188;51.958;5.842;2023-04-01T03:45:46;15.13;;;7.30;;
39020;SDS011;25188;51.958;5.842;2023-04-01T03:48:12;18.17;;;7.57;;
39020;SDS011;25188;51.958;5.842;2023-04-01T03:50:39;18.50;;;9.13;;
39020;SDS011;25188;51.958;5.842;2023-04-01T03:53:05;19.37;;;9.70;;
39020;SDS011;25188;51.958;5.842;2023-04-01T03:55:31;20.10;;;9.53;;
39020;SDS011;25188;51.958;5.842;2023-04-01T03:57:56;15.70;;;7.80;;
39020;SDS011;25188;51.958;5.842;2023-04-01T04:00:22;16.43;;;7.70;;
39020;SDS011;25188;51.958;5.842;2023-04-01T04:02:50;15.80;;;8.10;;
39020;SDS011;25188;51.958;5.842;2023-04-01T04:05:16;20.13;;;9.60;;
39020;SDS011;25188;51.958;5.842;2023-04-01T04:07:41;18.00;;;9.13;;
39020;SDS011;25188;51.958;5.842;2023-04-01T04:10:07;21.93;;;11.43;;
39020;SDS011;25188;51.958;5.842;2023-04-01T04:12:33;19.23;;;9.40;;
39020;SDS011;25188;51.958;5.842;2023-04-01T04:14:58;23.23;;;11.67;;
39020;SDS011;25188;51.958;5.842;2023-04-01T04:17:24;20.73;;;10.93;;
39020;SDS011;25188;51.958;5.842;2023-04-01T04:19:50;19.80;;;10.90;;
39020;SDS011;25188;51.958;5.842;2023-04-01T04:22:15;22.83;;;12.33;;
39020;SDS011;25188;51.958;5.842;2023-04-01T04:24:41;25.13;;;12.30;;
39020;SDS011;25188;51.958;5.842;2023-04-01T04:27:06;23.50;;;11.57;;
39020;SDS011;25188;51.958;5.842;2023-04-01T04:29:32;23.60;;;11.77;;
39020;SDS011;25188;51.958;5.842;2023-04-01T04:31:58;28.47;;;14.43;;
39020;SDS011;25188;51.958;5.842;2023-04-01T04:34:23;23.47;;;13.83;;
39020;SDS011;25188;51.958;5.842;2023-04-01T04:36:49;26.60;;;14.90;;
39020;SDS011;25188;51.958;5.842;2023-04-01T04:39:15;27.83;;;14.60;;
39020;SDS011;25188;51.958;5.842;2023-04-01T04:41:41;30.97;;;15.83;;
39020;SDS011;25188;51.958;5.842;2023-04-01T04:44:07;28.50;;;14.23;;
39020;SDS011;25188;51.958;5.842;2023-04-01T04:46:33;32.07;;;14.80;;
39020;SDS011;25188;51.958;5.842;2023-04-01T04:48:58;28.23;;;15.30;;
39020;SDS011;25188;51.958;5.842;2023-04-01T04:51:24;30.67;;;16.27;;
39020;SDS011;25188;51.958;5.842;2023-04-01T04:53:50;30.13;;;16.77;;
39020;SDS011;25188;51.958;5.842;2023-04-01T04:56:20;30.87;;;16.70;;
39020;SDS011;25188;51.958;5.842;2023-04-01T04:58:47;36.00;;;16.83;;
39020;SDS011;25188;51.958;5.842;2023-04-01T05:01:14;32.07;;;16.73;;
39020;SDS011;25188;51.958;5.842;2023-04-01T05:03:41;32.30;;;17.23;;
39020;SDS011;25188;51.958;5.842;2023-04-01T05:06:08;32.23;;;18.03;;
39020;SDS011;25188;51.958;5.842;2023-04-01T05:08:35;31.20;;;18.00;;
39020;SDS011;25188;51.958;5.842;2023-04-01T05:11:02;35.63;;;17.33;;
39020;SDS011;25188;51.958;5.842;2023-04-01T05:13:28;31.30;;;18.13;;
39020;SDS011;25188;51.958;5.842;2023-04-01T05:15:54;33.00;;;16.70;;
39020;SDS011;25188;51.958;5.842;2023-04-01T05:18:20;38.13;;;17.77;;
39020;SDS011;25188;51.958;5.842;2023-04-01T05:20:47;35.10;;;17.37;;
39020;SDS011;25188;51.958;5.842;2023-04-01T05:23:14;34.80;;;16.23;;
39020;SDS011;25188;51.958;5.842;2023-04-01T05:25:40;28.57;;;14.97;;
39020;SDS011;25188;51.958;5.842;2023-04-01T05:28:06;37.77;;;17.03;;
39020;SDS011;25188;51.958;5.842;2023-04-01T05:30:31;34.37;;;15.90;;
39020;SDS011;25188;51.958;5.842;2023-04-01T05:32:57;37.27;;;17.63;;
39020;SDS011;25188;51.958;5.842;2023-04-01T05:35:23;32.50;;;15.67;;
39020;SDS011;25188;51.958;5.842;2023-04-01T05:37:48;34.37;;;16.17;;
39020;SDS011;25188;51.958;5.842;2023-04-01T05:40:14;34.27;;;15.00;;
39020;SDS011;25188;51.958;5.842;2023-04-01T05:42:40;36.40;;;15.80;;
39020;SDS011;25188;51.958;5.842;2023-04-01T05:45:06;32.37;;;15.17;;
39020;SDS011;25188;51.958;5.842;2023-04-01T05:47:32;37.37;;;14.17;;
39020;SDS011;25188;51.958;5.842;2023-04-01T05:49:58;34.13;;;13.83;;
39020;SDS011;25188;51.958;5.842;2023-04-01T05:52:23;31.70;;;13.30;;
39020;SDS011;25188;51.958;5.842;2023-04-01T05:54:49;27.77;;;11.97;;
39020;SDS011;25188;51.958;5.842;2023-04-01T05:57:15;31.50;;;12.40;;
39020;SDS011;25188;51.958;5.842;2023-04-01T05:59:41;27.57;;;12.73;;
39020;SDS011;25188;51.958;5.842;2023-04-01T06:02:08;26.00;;;10.87;;
39020;SDS011;25188;51.958;5.842;2023-04-01T06:04:37;32.77;;;12.23;;
39020;SDS011;25188;51.958;5.842;2023-04-01T06:07:17;32.50;;;10.97;;
39020;SDS011;25188;51.958;5.842;2023-04-01T06:09:43;24.13;;;10.20;;
39020;SDS011;25188;51.958;5.842;2023-04-01T06:20:03;19.43;;;7.90;;
39020;SDS011;25188;51.958;5.842;2023-04-01T06:30:58;16.98;;;6.55;;
39020;SDS011;25188;51.958;5.842;2023-04-01T06:34:49;20.97;;;8.50;;
39020;SDS011;25188;51.958;5.842;2023-04-01T06:39:40;22.17;;;7.80;;
39020;SDS011;25188;51.958;5.842;2023-04-01T06:44:59;20.63;;;8.13;;
39020;SDS011;25188;51.958;5.842;2023-04-01T06:47:40;17.07;;;6.73;;
39020;SDS011;25188;51.958;5.842;2023-04-01T06:58:25;17.03;;;6.23;;
39020;SDS011;25188;51.958;5.842;2023-04-01T07:00:56;15.33;;;6.37;;
39020;SDS011;25188;51.958;5.842;2023-04-01T07:03:33;14.80;;;5.20;;
39020;SDS011;25188;51.958;5.842;2023-04-01T07:06:06;12.07;;;4.53;;
39020;SDS011;25188;51.958;5.842;2023-04-01T07:08:54;11.83;;;3.70;;
39020;SDS011;25188;51.958;5.842;2023-04-01T07:11:26;10.07;;;3.53;;
39020;SDS011;25188;51.958;5.842;2023-04-01T07:14:12;8.43;;;2.57;;
39020;SDS011;25188;51.958;5.842;2023-04-01T07:16:51;9.55;;;2.97;;
39020;SDS011;25188;51.958;5.842;2023-04-01T07:22:38;9.43;;;2.97;;
39020;SDS011;25188;51.958;5.842;2023-04-01T07:28:00;7.87;;;2.60;;
39020;SDS011;25188;51.958;5.842;2023-04-01T07:30:40;8.90;;;2.70;;
39020;SDS011;25188;51.958;5.842;2023-04-01T07:47:17;7.43;;;2.47;;
39020;SDS011;25188;51.958;5.842;2023-04-01T07:50:13;8.30;;;2.90;;
39020;SDS011;25188;51.958;5.842;2023-04-01T07:55:15;6.70;;;2.70;;
39020;SDS011;25188;51.958;5.842;2023-04-01T07:58:12;9.02;;;3.00;;
39020;SDS011;25188;51.958;5.842;2023-04-01T08:09:02;5.87;;;1.87;;
39020;SDS011;25188;51.958;5.842;2023-04-01T08:20:32;3.17;;;1.30;;
39020;SDS011;25188;51.958;5.842;2023-04-01T08:23:07;4.35;;;1.42;;
39020;SDS011;25188;51.958;5.842;2023-04-01T08:29:15;2.42;;;0.90;;
39020;SDS011;25188;51.958;5.842;2023-04-01T08:31:56;2.92;;;1.20;;
39020;SDS011;25188;51.958;5.842;2023-04-01T08:34:36;2.90;;;1.10;;
39020;SDS011;25188;51.958;5.842;2023-04-01T08:37:05;3.83;;;1.50;;
39020;SDS011;25188;51.958;5.842;2023-04-01T08:39:40;3.42;;;1.30;;
39020;SDS011;25188;51.958;5.842;2023-04-01T08:55:56;4.22;;;1.88;;
39020;SDS011;25188;51.958;5.842;2023-04-01T08:58:31;7.80;;;2.05;;
39020;SDS011;25188;51.958;5.842;2023-04-01T09:23:29;3.22;;;1.15;;
39020;SDS011;25188;51.958;5.842;2023-04-01T09:25:48;4.63;;;1.58;;
39020;SDS011;25188;51.958;5.842;2023-04-01T09:28:47;3.63;;;1.60;;
39020;SDS011;25188;51.958;5.842;2023-04-01T09:32:04;5.20;;;1.90;;
39020;SDS011;25188;51.958;5.842;2023-04-01T09:34:57;5.18;;;2.15;;
39020;SDS011;25188;51.958;5.842;2023-04-01T09:37:58;7.95;;;2.58;;
39020;SDS011;25188;51.958;5.842;2023-04-01T09:57:16;8.93;;;4.63;;
39020;SDS011;25188;51.958;5.842;2023-04-01T10:36:23;13.57;;;7.38;;
39020;SDS011;25188;51.958;5.842;2023-04-01T10:44:59;14.27;;;7.60;;
39020;SDS011;25188;51.958;5.842;2023-04-01T10:48:35;12.18;;;7.13;;
39020;SDS011;25188;51.958;5.842;2023-04-01T10:50:47;12.18;;;6.90;;
39020;SDS011;25188;51.958;5.842;2023-04-01T11:01:23;9.02;;;5.55;;
39020;SDS011;25188;51.958;5.842;2023-04-01T11:28:02;9.27;;;5.43;;
39020;SDS011;25188;51.958;5.842;2023-04-01T11:33:52;8.10;;;3.63;;
39020;SDS011;25188;51.958;5.842;2023-04-01T11:50:47;2.83;;;1.20;;
39020;SDS011;25188;51.958;5.842;2023-04-01T12:13:31;2.47;;;0.85;;
39020;SDS011;25188;51.958;5.842;2023-04-01T12:16:18;1.15;;;0.50;;
39020;SDS011;25188;51.958;5.842;2023-04-01T12:41:08;2.17;;;1.00;;
39020;SDS011;25188;51.958;5.842;2023-04-01T12:46:26;3.40;;;1.77;;
39020;SDS011;25188;51.958;5.842;2023-04-01T12:52:03;4.05;;;1.88;;
39020;SDS011;25188;51.958;5.842;2023-04-01T12:54:46;3.88;;;1.92;;
39020;SDS011;25188;51.958;5.842;2023-04-01T13:05:39;5.30;;;2.88;;
39020;SDS011;25188;51.958;5.842;2023-04-01T13:08:30;6.45;;;3.17;;
39020;SDS011;25188;51.958;5.842;2023-04-01T13:11:17;5.45;;;2.58;;
39020;SDS011;25188;51.958;5.842;2023-04-01T13:16:34;5.65;;;2.80;;
39020;SDS011;25188;51.958;5.842;2023-04-01T13:35:15;4.90;;;2.47;;
39020;SDS011;25188;51.958;5.842;2023-04-01T13:43:36;3.70;;;1.80;;
39020;SDS011;25188;51.958;5.842;2023-04-01T13:46:26;3.67;;;1.80;;
39020;SDS011;25188;51.958;5.842;2023-04-01T14:00:25;1.77;;;0.93;;
39020;SDS011;25188;51.958;5.842;2023-04-01T14:06:15;2.38;;;0.90;;
39020;SDS011;25188;51.958;5.842;2023-04-01T14:14:46;2.38;;;1.10;;
39020;SDS011;25188;51.958;5.842;2023-04-01T14:17:31;1.98;;;0.85;;
39020;SDS011;25188;51.958;5.842;2023-04-01T14:23:31;1.95;;;0.65;;
39020;SDS011;25188;51.958;5.842;2023-04-01T14:28:40;1.63;;;0.82;;
39020;SDS011;25188;51.958;5.842;2023-04-01T14:31:23;1.80;;;0.80;;
39020;SDS011;25188;51.958;5.842;2023-04-01T14:37:48;1.80;;;0.68;;
39020;SDS011;25188;51.958;5.842;2023-04-01T14:48:59;2.22;;;0.70;;
39020;SDS011;25188;51.958;5.842;2023-04-01T14:50:56;2.22;;;0.68;;
39020;SDS011;25188;51.958;5.842;2023-04-01T14:53:29;1.70;;;0.60;;
39020;SDS011;25188;51.958;5.842;2023-04-01T14:55:59;2.95;;;0.63;;
39020;SDS011;25188;51.958;5.842;2023-04-01T14:59:10;2.10;;;0.90;;
39020;SDS011;25188;51.958;5.842;2023-04-01T15:01:30;1.77;;;0.85;;
39020;SDS011;25188;51.958;5.842;2023-04-01T15:17:55;1.90;;;0.93;;
39020;SDS011;25188;51.958;5.842;2023-04-01T15:26:06;2.22;;;0.80;;
39020;SDS011;25188;51.958;5.842;2023-04-01T15:31:50;2.10;;;0.90;;
39020;SDS011;25188;51.958;5.842;2023-04-01T15:34:23;1.88;;;0.88;;
39020;SDS011;25188;51.958;5.842;2023-04-01T15:42:43;3.65;;;2.08;;
39020;SDS011;25188;51.958;5.842;2023-04-01T15:53:25;4.22;;;2.25;;
39020;SDS011;25188;51.958;5.842;2023-04-01T16:01:36;5.18;;;2.45;;
39020;SDS011;25188;51.958;5.842;2023-04-01T16:04:11;4.72;;;2.80;;
39020;SDS011;25188;51.958;5.842;2023-04-01T16:14:42;4.65;;;2.83;;
39020;SDS011;25188;51.958;5.842;2023-04-01T16:17:41;5.53;;;2.85;;
39020;SDS011;25188;51.958;5.842;2023-04-01T16:20:19;3.90;;;2.20;;
39020;SDS011;25188;51.958;5.842;2023-04-01T16:26:13;4.18;;;2.65;;
39020;SDS011;25188;51.958;5.842;2023-04-01T16:37:50;4.55;;;2.55;;
39020;SDS011;25188;51.958;5.842;2023-04-01T16:40:49;3.90;;;2.42;;
39020;SDS011;25188;51.958;5.842;2023-04-01T16:48:45;4.28;;;2.58;;
39020;SDS011;25188;51.958;5.842;2023-04-01T16:51:22;4.32;;;2.55;;
39020;SDS011;25188;51.958;5.842;2023-04-01T16:56:55;4.45;;;2.83;;
39020;SDS011;25188;51.958;5.842;2023-04-01T16:59:24;5.82;;;2.65;;
39020;SDS011;25188;51.958;5.842;2023-04-01T17:02:14;5.60;;;3.38;;
39020;SDS011;25188;51.958;5.842;2023-04-01T17:15:41;4.88;;;2.97;;
39020;SDS011;25188;51.958;5.842;2023-04-01T17:24:00;4.45;;;2.67;;
39020;SDS011;25188;51.958;5.842;2023-04-01T17:34:15;5.00;;;3.38;;
39020;SDS011;25188;51.958;5.842;2023-04-01T17:43:08;5.15;;;3.15;;
39020;SDS011;25188;51.958;5.842;2023-04-01T17:45:48;6.57;;;3.63;;
39020;SDS011;25188;51.958;5.842;2023-04-01T17:48:41;6.50;;;4.38;;
39020;SDS011;25188;51.958;5.842;2023-04-01T17:51:28;9.98;;;4.70;;
39020;SDS011;25188;51.958;5.842;2023-04-01T17:57:24;6.93;;;4.45;;
39020;SDS011;25188;51.958;5.842;2023-04-01T18:00:32;6.63;;;4.23;;
39020;SDS011;25188;51.958;5.842;2023-04-01T18:05:47;5.47;;;3.72;;
39020;SDS011;25188;51.958;5.842;2023-04-01T18:11:04;7.53;;;4.47;;
39020;SDS011;25188;51.958;5.842;2023-04-01T18:27:49;7.17;;;4.73;;
39020;SDS011;25188;51.958;5.842;2023-04-01T18:30:32;8.40;;;4.63;;
39020;SDS011;25188;51.958;5.842;2023-04-01T18:38:40;5.70;;;3.90;;
39020;SDS011;25188;51.958;5.842;2023-04-01T18:44:28;6.77;;;5.17;;
39020;SDS011;25188;51.958;5.842;2023-04-01T18:47:00;11.48;;;5.72;;
39020;SDS011;25188;51.958;5.842;2023-04-01T18:49:48;9.88;;;6.82;;
39020;SDS011;25188;51.958;5.842;2023-04-01T19:00:19;10.75;;;6.70;;
39020;SDS011;25188;51.958;5.842;2023-04-01T19:03:07;8.67;;;6.30;;
39020;SDS011;25188;51.958;5.842;2023-04-01T19:05:53;9.73;;;6.93;;
39020;SDS011;25188;51.958;5.842;2023-04-01T19:08:31;9.93;;;7.17;;
39020;SDS011;25188;51.958;5.842;2023-04-01T19:14:14;9.53;;;7.07;;
39020;SDS011;25188;51.958;5.842;2023-04-01T19:16:52;8.87;;;6.73;;
39020;SDS011;25188;51.958;5.842;2023-04-01T19:24:59;7.93;;;6.00;;
39020;SDS011;25188;51.958;5.842;2023-04-01T19:27:53;8.23;;;5.97;;
39020;SDS011;25188;51.958;5.842;2023-04-01T19:41:46;9.93;;;7.10;;
39020;SDS011;25188;51.958;5.842;2023-04-01T19:50:31;8.63;;;6.87;;
39020;SDS011;25188;51.958;5.842;2023-04-01T19:56:07;9.07;;;7.10;;
39020;SDS011;25188;51.958;5.842;2023-04-01T20:04:42;9.63;;;6.60;;
39020;SDS011;25188;51.958;5.842;2023-04-01T20:07:22;9.37;;;6.90;;
39020;SDS011;25188;51.958;5.842;2023-04-01T20:09:58;9.97;;;7.20;;
39020;SDS011;25188;51.958;5.842;2023-04-01T20:12:42;10.83;;;8.03;;
39020;SDS011;25188;51.958;5.842;2023-04-01T20:15:31;10.60;;;8.10;;
39020;SDS011;25188;51.958;5.842;2023-04-01T20:18:01;11.27;;;8.27;;
39020;SDS011;25188;51.958;5.842;2023-04-01T20:20:30;12.93;;;9.07;;
39020;SDS011;25188;51.958;5.842;2023-04-01T20:23:01;11.23;;;7.73;;
39020;SDS011;25188;51.958;5.842;2023-04-01T20:25:48;12.13;;;9.02;;
39020;SDS011;25188;51.958;5.842;2023-04-01T20:28:32;11.90;;;9.20;;
39020;SDS011;25188;51.958;5.842;2023-04-01T20:33:57;12.60;;;9.37;;
39020;SDS011;25188;51.958;5.842;2023-04-01T20:50:31;15.53;;;10.43;;
39020;SDS011;25188;51.958;5.842;2023-04-01T20:53:28;13.23;;;9.82;;
39020;SDS011;25188;51.958;5.842;2023-04-01T21:48:08;12.90;;;9.50;;
39020;SDS011;25188;51.958;5.842;2023-04-01T21:50:44;14.17;;;9.40;;
39020;SDS011;25188;51.958;5.842;2023-04-01T22:04:31;11.23;;;9.10;;
39020;SDS011;25188;51.958;5.842;2023-04-01T22:07:13;13.77;;;8.73;;
39020;SDS011;25188;51.958;5.842;2023-04-01T22:09:49;16.97;;;9.13;;
39020;SDS011;25188;51.958;5.842;2023-04-01T22:29:31;13.13;;;7.90;;
39020;SDS011;25188;51.958;5.842;2023-04-01T22:32:21;12.73;;;9.07;;
39020;SDS011;25188;51.958;5.842;2023-04-01T22:43:08;12.00;;;9.73;;
39020;SDS011;25188;51.958;5.842;2023-04-01T22:46:08;11.77;;;8.87;;
39020;SDS011;25188;51.958;5.842;2023-04-01T22:48:57;11.80;;;8.83;;
39020;SDS011;25188;51.958;5.842;2023-04-01T22:57:28;11.07;;;7.70;;
39020;SDS011;25188;51.958;5.842;2023-04-01T23:00:07;10.97;;;7.77;;
39020;SDS011;25188;51.958;5.842;2023-04-01T23:02:39;9.97;;;7.47;;
39020;SDS011;25188;51.958;5.842;2023-04-01T23:05:30;10.57;;;7.20;;
39020;SDS011;25188;51.958;5.842;2023-04-01T23:10:57;12.90;;;8.93;;
39020;SDS011;25188;51.958;5.842;2023-04-01T23:13:50;11.53;;;8.33;;
39020;SDS011;25188;51.958;5.842;2023-04-01T23:16:30;11.17;;;7.57;;
39020;SDS011;25188;51.958;5.842;2023-04-01T23:19:12;10.93;;;8.13;;
39020;SDS011;25188;51.958;5.842;2023-04-01T23:21:52;12.27;;;8.90;;
39020;SDS011;25188;51.958;5.842;2023-04-01T23:24:27;13.47;;;10.00;;
39020;SDS011;25188;51.958;5.842;2023-04-01T23:27:31;13.60;;;9.80;;
39020;SDS011;25188;51.958;5.842;2023-04-01T23:29:52;12.87;;;8.97;;
39020;SDS011;25188;51.958;5.842;2023-04-01T23:32:18;16.27;;;11.40;;
39020;SDS011;25188;51.958;5.842;2023-04-01T23:34:50;13.97;;;10.17;;
39020;SDS011;25188;51.958;5.842;2023-04-01T23:37:18;15.30;;;11.40;;
39020;SDS011;25188;51.958;5.842;2023-04-01T23:39:46;17.17;;;12.97;;
39020;SDS011;25188;51.958;5.842;2023-04-01T23:42:26;15.00;;;12.07;;
39020;SDS011;25188;51.958;5.842;2023-04-01T23:45:03;16.10;;;12.43;;
39020;SDS011;25188;51.958;5.842;2023-04-01T23:47:38;16.47;;;12.60;;
39020;SDS011;25188;51.958;5.842;2023-04-01T23:50:16;15.63;;;11.47;;
39020;SDS011;25188;51.958;5.842;2023-04-01T23:52:49;17.93;;;12.20;;
39020;SDS011;25188;51.958;5.842;2023-04-01T23:55:54;16.43;;;11.03;;
39020;SDS011;25188;51.958;5.842;2023-04-01T23:58:26;14.80;;;10.33;;
